^^
Station Historical Data
Daily Summary for January 10, 2018 Units:  Both    English   Metric
« Previous Day
Next Day »
Daily Weekly Monthly Yearly Custom
  High: Low: Average:
Temperature: TemperatureF °F /  -17.8 °C 66.0 °F /  18.9 °C 87.4 °F /  30.8 °C
Dew Point: DewpointF °F /  -17.8 °C 23.0 °F /  -5 °C 27.4 °F /  -2.6 °C
Humidity: Humidity% 7% 12%
Wind Speed: WindSpeedMPHmph /  0km/h - 1.3mph /  2.1km/h
Wind Gust: WindSpeedGustMPHmph /  0km/h - -
Wind- - SE
Pressure: PressureIn in /  0 hPa 29.56 in /  1000.9 hPa -
Precipitation: 0.00 in /  0 mm    
Historical Graphs
 
 
Tabular Data for January 10, 2018
Time Temperature Dew Point Pressure Wind Wind Speed Wind Gust Humidity Rainfall Rate (Hourly) solar Conditions
TemperatureF °F /  -17.8 °C DewpointF °F /  -17.8 °C PressureInin /  0hPa Calm     Humidity% HourlyPrecipInin /  0mm SolarRadiationWatts/m^2 W/m2 Conditions
01:06 73.9 °F /  23.3 °C 43.0 °F /  6.1 °C 29.67in /  1004.6hPa Calm   2.0mph /  3.2km/h 33% 0.00in /  0mm 0.0 W/m2
01:57 72.7 °F /  22.6 °C 44.2 °F /  6.8 °C 29.67in /  1004.6hPa SSW 2.9mph /  4.7km/h 3.0mph /  4.8km/h 36% 0.00in /  0mm 0.0 W/m2
05:32 71.6 °F /  22 °C 27.1 °F /  -2.7 °C 29.69in /  1005.3hPa ESE 0.9mph /  1.4km/h 3.0mph /  4.8km/h 19% 0.00in /  0mm 0.0 W/m2
06:21 68.4 °F /  20.2 °C 29.1 °F /  -1.6 °C 29.70in /  1005.6hPa Calm   1.0mph /  1.6km/h 23% 0.00in /  0mm 5.0 W/m2
06:34 67.3 °F /  19.6 °C 30.2 °F /  -1 °C 29.70in /  1005.6hPa Calm   1.0mph /  1.6km/h 25% 0.00in /  0mm 11.0 W/m2
07:15 66.0 °F /  18.9 °C 35.2 °F /  1.8 °C 29.71in /  1006hPa Calm     32% 0.00in /  0mm 21.0 W/m2
08:38 78.6 °F /  25.9 °C 28.8 °F /  -1.8 °C 29.71in /  1006hPa East 2.9mph /  4.7km/h 4.0mph /  6.4km/h 16% 0.00in /  0mm 524.0 W/m2
12:02 90.9 °F /  32.7 °C 26.8 °F /  -2.9 °C 29.67in /  1004.6hPa NNW 4.0mph /  6.4km/h 11.0mph /  17.7km/h 10% 0.00in /  0mm 1056.0 W/m2
13:48 93.9 °F /  34.4 °C 26.6 °F /  -3 °C 29.64in /  1003.6hPa North 8.1mph /  13km/h 12.0mph /  19.3km/h 9% 0.00in /  0mm 1053.0 W/m2
14:53 97.0 °F /  36.1 °C 25.9 °F /  -3.4 °C 29.61in /  1002.6hPa North 4.9mph /  7.9km/h 9.0mph /  14.5km/h 8% 0.00in /  0mm 1056.0 W/m2
15:12 97.9 °F /  36.6 °C 26.6 °F /  -3 °C 29.60in /  1002.3hPa Calm   5.0mph /  8km/h 8% 0.00in /  0mm 993.0 W/m2
15:39 98.1 °F /  36.7 °C 23.5 °F /  -4.7 °C 29.59in /  1001.9hPa WNW 2.9mph /  4.7km/h 4.0mph /  6.4km/h 7% 0.00in /  0mm 958.0 W/m2
15:50 97.9 °F /  36.6 °C 26.6 °F /  -3 °C 29.58in /  1001.6hPa SW 0.9mph /  1.4km/h 6.0mph /  9.7km/h 8% 0.00in /  0mm 958.0 W/m2
16:10 97.3 °F /  36.3 °C 26.2 °F /  -3.2 °C 29.57in /  1001.2hPa East 0.9mph /  1.4km/h 8.0mph /  12.9km/h 8% 0.00in /  0mm 162.0 W/m2
16:20 95.7 °F /  35.4 °C 25.0 °F /  -3.9 °C 29.57in /  1001.2hPa NNW 2.0mph /  3.2km/h 5.0mph /  8km/h 8% 0.00in /  0mm 176.0 W/m2
16:21 95.5 °F /  35.3 °C 27.7 °F /  -2.4 °C 29.57in /  1001.2hPa Calm   4.0mph /  6.4km/h 9% 0.00in /  0mm 176.0 W/m2
16:22 95.5 °F /  35.3 °C 25.0 °F /  -3.9 °C 29.57in /  1001.2hPa SE 2.0mph /  3.2km/h 3.0mph /  4.8km/h 8% 0.00in /  0mm 171.0 W/m2
16:24 95.5 °F /  35.3 °C 25.0 °F /  -3.9 °C 29.57in /  1001.2hPa ENE 2.0mph /  3.2km/h 5.0mph /  8km/h 8% 0.00in /  0mm 163.0 W/m2
16:27 95.4 °F /  35.2 °C 27.7 °F /  -2.4 °C 29.57in /  1001.2hPa Calm   3.0mph /  4.8km/h 9% 0.00in /  0mm 160.0 W/m2
16:28 95.4 °F /  35.2 °C 24.8 °F /  -4 °C 29.57in /  1001.2hPa NNE 4.0mph /  6.4km/h 5.0mph /  8km/h 8% 0.00in /  0mm 160.0 W/m2
16:31 95.2 °F /  35.1 °C 24.6 °F /  -4.1 °C 29.57in /  1001.2hPa Calm   3.0mph /  4.8km/h 8% 0.00in /  0mm 165.0 W/m2
16:36 94.8 °F /  34.9 °C 27.1 °F /  -2.7 °C 29.57in /  1001.2hPa Calm   2.0mph /  3.2km/h 9% 0.00in /  0mm 160.0 W/m2
16:37 94.8 °F /  34.9 °C 27.1 °F /  -2.7 °C 29.57in /  1001.2hPa WNW 0.9mph /  1.4km/h 1.0mph /  1.6km/h 9% 0.00in /  0mm 167.0 W/m2
16:43 95.0 °F /  35 °C 27.3 °F /  -2.6 °C 29.57in /  1001.2hPa NNE 2.9mph /  4.7km/h 4.0mph /  6.4km/h 9% 0.00in /  0mm 770.0 W/m2
16:44 95.2 °F /  35.1 °C 24.6 °F /  -4.1 °C 29.57in /  1001.2hPa Calm   4.0mph /  6.4km/h 8% 0.00in /  0mm 756.0 W/m2
16:46 95.4 °F /  35.2 °C 24.8 °F /  -4 °C 29.57in /  1001.2hPa West 0.9mph /  1.4km/h 3.0mph /  4.8km/h 8% 0.00in /  0mm 756.0 W/m2
16:47 95.4 °F /  35.2 °C 27.7 °F /  -2.4 °C 29.57in /  1001.2hPa West 0.9mph /  1.4km/h 3.0mph /  4.8km/h 9% 0.00in /  0mm 308.0 W/m2
16:52 95.5 °F /  35.3 °C 25.0 °F /  -3.9 °C 29.56in /  1000.9hPa Calm   3.0mph /  4.8km/h 8% 0.00in /  0mm 176.0 W/m2
16:57 95.4 °F /  35.2 °C 24.8 °F /  -4 °C 29.56in /  1000.9hPa Calm   2.0mph /  3.2km/h 8% 0.00in /  0mm 202.0 W/m2
17:02 94.8 °F /  34.9 °C 27.1 °F /  -2.7 °C 29.56in /  1000.9hPa Calm   3.0mph /  4.8km/h 9% 0.00in /  0mm 162.0 W/m2
17:03 94.8 °F /  34.9 °C 24.4 °F /  -4.2 °C 29.56in /  1000.9hPa NNE 0.9mph /  1.4km/h 3.0mph /  4.8km/h 8% 0.00in /  0mm 162.0 W/m2
17:05 94.6 °F /  34.8 °C 24.3 °F /  -4.3 °C 29.56in /  1000.9hPa Calm   3.0mph /  4.8km/h 8% 0.00in /  0mm 156.0 W/m2
17:07 94.5 °F /  34.7 °C 27.0 °F /  -2.8 °C 29.56in /  1000.9hPa North 0.9mph /  1.4km/h 2.0mph /  3.2km/h 9% 0.00in /  0mm 162.0 W/m2
17:13 94.3 °F /  34.6 °C 26.8 °F /  -2.9 °C 29.56in /  1000.9hPa Calm   3.0mph /  4.8km/h 9% 0.00in /  0mm 149.0 W/m2
17:17 94.3 °F /  34.6 °C 23.9 °F /  -4.5 °C 29.56in /  1000.9hPa ENE 4.0mph /  6.4km/h 5.0mph /  8km/h 8% 0.00in /  0mm 144.0 W/m2
17:20 93.9 °F /  34.4 °C 26.6 °F /  -3 °C 29.56in /  1000.9hPa NE 0.9mph /  1.4km/h 4.0mph /  6.4km/h 9% 0.00in /  0mm 144.0 W/m2
17:25 93.7 °F /  34.3 °C 26.4 °F /  -3.1 °C 29.56in /  1000.9hPa Calm   1.0mph /  1.6km/h 9% 0.00in /  0mm 204.0 W/m2
17:26 93.9 °F /  34.4 °C 26.6 °F /  -3 °C 29.56in /  1000.9hPa Calm   3.0mph /  4.8km/h 9% 0.00in /  0mm 141.0 W/m2
17:32 93.6 °F /  34.2 °C 26.2 °F /  -3.2 °C 29.56in /  1000.9hPa ESE 2.0mph /  3.2km/h 3.0mph /  4.8km/h 9% 0.00in /  0mm 132.0 W/m2
17:37 93.4 °F /  34.1 °C 26.1 °F /  -3.3 °C 29.56in /  1000.9hPa ESE 0.9mph /  1.4km/h 2.0mph /  3.2km/h 9% 0.00in /  0mm 120.0 W/m2
17:41 93.4 °F /  34.1 °C 23.4 °F /  -4.8 °C 29.56in /  1000.9hPa Calm   4.0mph /  6.4km/h 8% 0.00in /  0mm 113.0 W/m2
17:46 93.0 °F /  33.9 °C 25.9 °F /  -3.4 °C 29.56in /  1000.9hPa SE 2.0mph /  3.2km/h 3.0mph /  4.8km/h 9% 0.00in /  0mm 107.0 W/m2
17:51 92.8 °F /  33.8 °C 23.0 °F /  -5 °C 29.57in /  1001.2hPa Calm   1.0mph /  1.6km/h 8% 0.00in /  0mm 102.0 W/m2
17:57 92.7 °F /  33.7 °C 25.5 °F /  -3.6 °C 29.57in /  1001.2hPa ESE 2.0mph /  3.2km/h 4.0mph /  6.4km/h 9% 0.00in /  0mm 100.0 W/m2
18:02 92.3 °F /  33.5 °C 25.3 °F /  -3.7 °C 29.57in /  1001.2hPa SE 0.9mph /  1.4km/h 2.0mph /  3.2km/h 9% 0.00in /  0mm 90.0 W/m2
18:07 91.9 °F /  33.3 °C 25.0 °F /  -3.9 °C 29.57in /  1001.2hPa ENE 4.0mph /  6.4km/h 6.0mph /  9.7km/h 9% 0.00in /  0mm 86.0 W/m2
18:13 91.8 °F /  33.2 °C 27.5 °F /  -2.5 °C 29.57in /  1001.2hPa Calm   1.0mph /  1.6km/h 10% 0.00in /  0mm 76.0 W/m2
18:18 91.6 °F /  33.1 °C 27.3 °F /  -2.6 °C 29.57in /  1001.2hPa ENE 2.0mph /  3.2km/h 4.0mph /  6.4km/h 10% 0.00in /  0mm 62.0 W/m2
18:25 91.2 °F /  32.9 °C 27.1 °F /  -2.7 °C 29.57in /  1001.2hPa Calm   2.0mph /  3.2km/h 10% 0.00in /  0mm 77.0 W/m2
18:32 91.2 °F /  32.9 °C 24.4 °F /  -4.2 °C 29.57in /  1001.2hPa NE 2.0mph /  3.2km/h 2.0mph /  3.2km/h 9% 0.00in /  0mm 125.0 W/m2
18:37 91.4 °F /  33 °C 24.6 °F /  -4.1 °C 29.58in /  1001.6hPa East 0.9mph /  1.4km/h 3.0mph /  4.8km/h 9% 0.00in /  0mm 130.0 W/m2
18:42 91.6 °F /  33.1 °C 27.3 °F /  -2.6 °C 29.58in /  1001.6hPa Calm   1.0mph /  1.6km/h 10% 0.00in /  0mm 167.0 W/m2
18:47 91.8 °F /  33.2 °C 25.0 °F /  -3.9 °C 29.58in /  1001.6hPa ESE 0.9mph /  1.4km/h 4.0mph /  6.4km/h 9% 0.00in /  0mm 98.0 W/m2
18:53 91.9 °F /  33.3 °C 25.0 °F /  -3.9 °C 29.58in /  1001.6hPa SSE 2.0mph /  3.2km/h 3.0mph /  4.8km/h 9% 0.00in /  0mm 40.0 W/m2
18:58 91.8 °F /  33.2 °C 25.0 °F /  -3.9 °C 29.58in /  1001.6hPa ESE 2.0mph /  3.2km/h 3.0mph /  4.8km/h 9% 0.00in /  0mm 33.0 W/m2
19:03 91.6 °F /  33.1 °C 24.8 °F /  -4 °C 29.59in /  1001.9hPa Calm   1.0mph /  1.6km/h 9% 0.00in /  0mm 26.0 W/m2
19:08 91.4 °F /  33 °C 27.1 °F /  -2.7 °C 29.59in /  1001.9hPa Calm   1.0mph /  1.6km/h 10% 0.00in /  0mm 21.0 W/m2
19:16 91.0 °F /  32.8 °C 27.0 °F /  -2.8 °C 29.59in /  1001.9hPa SSE 4.0mph /  6.4km/h 6.0mph /  9.7km/h 10% 0.00in /  0mm 16.0 W/m2
19:21 90.7 °F /  32.6 °C 26.6 °F /  -3 °C 29.59in /  1001.9hPa South 4.9mph /  7.9km/h 5.0mph /  8km/h 10% 0.00in /  0mm 11.0 W/m2
19:26 90.1 °F /  32.3 °C 23.7 °F /  -4.6 °C 29.59in /  1001.9hPa Calm   5.0mph /  8km/h 9% 0.00in /  0mm 7.0 W/m2
19:31 89.8 °F /  32.1 °C 25.9 °F /  -3.4 °C 29.59in /  1001.9hPa SSW 6.0mph /  9.7km/h 9.0mph /  14.5km/h 10% 0.00in /  0mm 5.0 W/m2
19:34 89.4 °F /  31.9 °C 25.7 °F /  -3.5 °C 29.59in /  1001.9hPa SSW 2.9mph /  4.7km/h 11.0mph /  17.7km/h 10% 0.00in /  0mm 0.0 W/m2
19:39 89.1 °F /  31.7 °C 25.3 °F /  -3.7 °C 29.60in /  1002.3hPa SSW 0.9mph /  1.4km/h 5.0mph /  8km/h 10% 0.00in /  0mm 0.0 W/m2
19:45 88.7 °F /  31.5 °C 25.2 °F /  -3.8 °C 29.60in /  1002.3hPa Calm   4.0mph /  6.4km/h 10% 0.00in /  0mm 0.0 W/m2
19:50 88.5 °F /  31.4 °C 25.0 °F /  -3.9 °C 29.60in /  1002.3hPa WSW 0.9mph /  1.4km/h 6.0mph /  9.7km/h 10% 0.00in /  0mm 0.0 W/m2
19:55 88.2 °F /  31.2 °C 24.8 °F /  -4 °C 29.60in /  1002.3hPa SSW 2.0mph /  3.2km/h 5.0mph /  8km/h 10% 0.00in /  0mm 0.0 W/m2
20:00 88.2 °F /  31.2 °C 24.8 °F /  -4 °C 29.60in /  1002.3hPa SW 0.9mph /  1.4km/h 5.0mph /  8km/h 10% 0.00in /  0mm 0.0 W/m2
20:05 88.0 °F /  31.1 °C 24.6 °F /  -4.1 °C 29.60in /  1002.3hPa SE 4.9mph /  7.9km/h 9.0mph /  14.5km/h 10% 0.00in /  0mm 0.0 W/m2
20:15 87.6 °F /  30.9 °C 24.3 °F /  -4.3 °C 29.60in /  1002.3hPa South 0.9mph /  1.4km/h 3.0mph /  4.8km/h 10% 0.00in /  0mm 0.0 W/m2
20:20 87.4 °F /  30.8 °C 24.3 °F /  -4.3 °C 29.61in /  1002.6hPa Calm   2.0mph /  3.2km/h 10% 0.00in /  0mm 0.0 W/m2
20:25 87.3 °F /  30.7 °C 26.4 °F /  -3.1 °C 29.61in /  1002.6hPa ESE 4.0mph /  6.4km/h 7.0mph /  11.3km/h 11% 0.00in /  0mm 0.0 W/m2
20:30 87.1 °F /  30.6 °C 23.9 °F /  -4.5 °C 29.61in /  1002.6hPa SE 2.0mph /  3.2km/h 2.0mph /  3.2km/h 10% 0.00in /  0mm 0.0 W/m2
20:41 86.7 °F /  30.4 °C 25.9 °F /  -3.4 °C 29.62in /  1002.9hPa Calm   3.0mph /  4.8km/h 11% 0.00in /  0mm 0.0 W/m2
20:47 86.5 °F /  30.3 °C 25.9 °F /  -3.4 °C 29.62in /  1002.9hPa ESE 2.0mph /  3.2km/h 3.0mph /  4.8km/h 11% 0.00in /  0mm 0.0 W/m2
20:57 85.8 °F /  29.9 °C 27.3 °F /  -2.6 °C 29.62in /  1002.9hPa SE 2.0mph /  3.2km/h 2.0mph /  3.2km/h 12% 0.00in /  0mm 0.0 W/m2
21:05 84.9 °F /  29.4 °C 26.6 °F /  -3 °C 29.62in /  1002.9hPa SSE 2.9mph /  4.7km/h 3.0mph /  4.8km/h 12% 0.00in /  0mm 0.0 W/m2
21:10 84.4 °F /  29.1 °C 26.2 °F /  -3.2 °C 29.62in /  1002.9hPa Calm   3.0mph /  4.8km/h 12% 0.00in /  0mm 0.0 W/m2
21:17 83.8 °F /  28.8 °C 27.7 °F /  -2.4 °C 29.62in /  1002.9hPa SSE 0.9mph /  1.4km/h 2.0mph /  3.2km/h 13% 0.00in /  0mm 0.0 W/m2
21:28 83.7 °F /  28.7 °C 25.7 °F /  -3.5 °C 29.63in /  1003.3hPa SSE 2.9mph /  4.7km/h 6.0mph /  9.7km/h 12% 0.00in /  0mm 0.0 W/m2
21:33 83.8 °F /  28.8 °C 23.7 °F /  -4.6 °C 29.64in /  1003.6hPa ESE 4.0mph /  6.4km/h 4.0mph /  6.4km/h 11% 0.00in /  0mm 0.0 W/m2
21:39 84.0 °F /  28.9 °C 23.9 °F /  -4.5 °C 29.64in /  1003.6hPa ESE 0.9mph /  1.4km/h 5.0mph /  8km/h 11% 0.00in /  0mm 0.0 W/m2
21:49 83.8 °F /  28.8 °C 23.7 °F /  -4.6 °C 29.65in /  1003.9hPa Calm   2.0mph /  3.2km/h 11% 0.00in /  0mm 0.0 W/m2
21:54 83.8 °F /  28.8 °C 25.9 °F /  -3.4 °C 29.65in /  1003.9hPa NE 4.0mph /  6.4km/h 4.0mph /  6.4km/h 12% 0.00in /  0mm 0.0 W/m2
22:00 83.7 °F /  28.7 °C 25.7 °F /  -3.5 °C 29.65in /  1003.9hPa Calm   5.0mph /  8km/h 12% 0.00in /  0mm 0.0 W/m2
22:05 83.3 °F /  28.5 °C 25.3 °F /  -3.7 °C 29.66in /  1004.3hPa North 2.0mph /  3.2km/h 6.0mph /  9.7km/h 12% 0.00in /  0mm 0.0 W/m2
22:11 82.9 °F /  28.3 °C 25.2 °F /  -3.8 °C 29.66in /  1004.3hPa Calm   4.0mph /  6.4km/h 12% 0.00in /  0mm 0.0 W/m2
22:18 82.8 °F /  28.2 °C 27.0 °F /  -2.8 °C 29.66in /  1004.3hPa Calm   1.0mph /  1.6km/h 13% 0.00in /  0mm 0.0 W/m2
22:23 82.8 °F /  28.2 °C 27.0 °F /  -2.8 °C 29.66in /  1004.3hPa Calm   3.0mph /  4.8km/h 13% 0.00in /  0mm 0.0 W/m2
22:28 82.6 °F /  28.1 °C 26.8 °F /  -2.9 °C 29.66in /  1004.3hPa NNE 2.0mph /  3.2km/h 2.0mph /  3.2km/h 13% 0.00in /  0mm 0.0 W/m2
22:33 82.4 °F /  28 °C 26.6 °F /  -3 °C 29.67in /  1004.6hPa ENE 0.9mph /  1.4km/h 2.0mph /  3.2km/h 13% 0.00in /  0mm 0.0 W/m2
22:38 82.2 °F /  27.9 °C 26.4 °F /  -3.1 °C 29.67in /  1004.6hPa Calm   1.0mph /  1.6km/h 13% 0.00in /  0mm 0.0 W/m2
22:43 82.0 °F /  27.8 °C 26.4 °F /  -3.1 °C 29.67in /  1004.6hPa Calm     13% 0.00in /  0mm 0.0 W/m2
22:53 81.7 °F /  27.6 °C 34.0 °F /  1.1 °C 29.67in /  1004.6hPa Calm   1.0mph /  1.6km/h 18% 0.00in /  0mm 0.0 W/m2
22:58 81.5 °F /  27.5 °C 35.2 °F /  1.8 °C 29.68in /  1005hPa Calm     19% 0.00in /  0mm 0.0 W/m2
23:11 81.0 °F /  27.2 °C 37.4 °F /  3 °C 29.68in /  1005hPa Calm     21% 0.00in /  0mm 0.0 W/m2
23:16 80.8 °F /  27.1 °C 38.5 °F /  3.6 °C 29.68in /  1005hPa Calm   1.0mph /  1.6km/h 22% 0.00in /  0mm 0.0 W/m2
23:21 80.4 °F /  26.9 °C 38.1 °F /  3.4 °C 29.68in /  1005hPa Calm   1.0mph /  1.6km/h 22% 0.00in /  0mm 0.0 W/m2
23:30 80.1 °F /  26.7 °C 40.1 °F /  4.5 °C 29.68in /  1005hPa Calm   2.0mph /  3.2km/h 24% 0.00in /  0mm 0.0 W/m2
23:37 79.9 °F /  26.6 °C 41.0 °F /  5 °C 29.67in /  1004.6hPa Calm   1.0mph /  1.6km/h 25% 0.00in /  0mm 0.0 W/m2
23:43 79.5 °F /  26.4 °C 40.6 °F /  4.8 °C 29.67in /  1004.6hPa Calm   1.0mph /  1.6km/h 25% 0.00in /  0mm 0.0 W/m2
23:48 79.3 °F /  26.3 °C 41.5 °F /  5.3 °C 29.67in /  1004.6hPa Calm   2.0mph /  3.2km/h 26% 0.00in /  0mm 0.0 W/m2
23:53 79.2 °F /  26.2 °C 42.3 °F /  5.7 °C 29.67in /  1004.6hPa Calm     27% 0.00in /  0mm 0.0 W/m2
23:58 78.6 °F /  25.9 °C 41.9 °F /  5.5 °C 29.67in /  1004.6hPa Calm     27% 0.00in /  0mm 0.0 W/m2
Olympia, Windhoek, Namibia
Compliments of Weather Underground - 2.25 mb